Time;durP1;ratioP1;P1;durP2;ratioP2;P2;SDS_P1;SDS_P2;PMS_P1;PMS_P2;Temp;Humidity;BMP_temperature;BMP_pressure;BME280_temperature;BME280_humidity;BME280_pressure;Samples;Min_cycle;Max_cycle;Signal;HPM_P1;HPM_P2
2022/06/19 00:00:42;;;;;;;;;;;21.50;57.70;;;;;;5030877;28;20016;-78
2022/06/19 00:03:11;;;;;;;;;;;21.50;57.70;;;;;;5030202;28;19917;-78
2022/06/19 00:05:37;;;;;;;;;;;21.60;57.20;;;;;;5031692;28;20020;-78
2022/06/19 00:08:02;;;;;;;;;;;21.50;58.40;;;;;;5030437;28;19953;-78
2022/06/19 00:10:28;;;;;;;;;;;21.40;58.10;;;;;;5029831;28;19974;-78
2022/06/19 00:12:53;;;;;;;;;;;21.40;57.50;;;;;;5031724;28;19909;-77
2022/06/19 00:15:19;;;;;;;;;;;21.40;58.50;;;;;;5030196;28;19979;-78
2022/06/19 00:17:44;;;;;;;;;;;21.50;57.60;;;;;;5031272;28;19916;-78
2022/06/19 00:20:10;;;;;;;;;;;21.40;59.00;;;;;;5030648;28;20265;-79
2022/06/19 00:22:37;;;;;;;;;;;21.30;58.70;;;;;;5031302;28;20003;-78
2022/06/19 00:25:03;;;;;;;;;;;21.30;58.40;;;;;;5033367;28;20404;-78
2022/06/19 00:27:28;;;;;;;;;;;21.20;59.10;;;;;;5031574;28;19909;-78
2022/06/19 00:29:54;;;;;;;;;;;21.20;58.60;;;;;;5031127;28;19919;-79
2022/06/19 00:32:20;;;;;;;;;;;21.20;58.80;;;;;;5033267;28;20289;-78
2022/06/19 00:34:47;;;;;;;;;;;21.20;58.30;;;;;;5033721;28;19996;-78
2022/06/19 00:37:12;;;;;;;;;;;21.10;59.10;;;;;;5034170;28;19909;-78
2022/06/19 00:39:39;;;;;;;;;;;21.10;59.10;;;;;;5032091;28;20323;-78
2022/06/19 00:42:09;;;;;;;;;;;21.10;58.70;;;;;;5029827;28;19960;-78
2022/06/19 00:44:34;;;;;;;;;;;21.10;58.40;;;;;;5031365;28;20333;-78
2022/06/19 00:47:00;;;;;;;;;;;21.10;58.80;;;;;;5032087;28;20044;-78
2022/06/19 00:49:31;;;;;;;;;;;21.10;58.40;;;;;;5031304;28;19909;-79
2022/06/19 00:52:01;;;;;;;;;;;21.10;58.80;;;;;;5030570;28;19909;-78
2022/06/19 00:54:28;;;;;;;;;;;21.10;58.60;;;;;;5031665;28;19909;-77
2022/06/19 00:56:53;;;;;;;;;;;21.10;59.00;;;;;;5031157;28;20007;-77
2022/06/19 00:59:19;;;;;;;;;;;21.00;59.30;;;;;;5030195;28;20071;-78
2022/06/19 01:01:44;;;;;;;;;;;21.00;59.60;;;;;;5030943;28;19917;-78
2022/06/19 01:04:10;;;;;;;;;;;21.00;57.90;;;;;;5033622;28;20376;-78
2022/06/19 01:06:35;;;;;;;;;;;21.10;58.40;;;;;;5034353;28;20427;-80
2022/06/19 01:09:01;;;;;;;;;;;20.90;59.50;;;;;;5033736;28;19909;-78
2022/06/19 01:11:30;;;;;;;;;;;20.90;59.70;;;;;;5034130;28;20007;-78
2022/06/19 01:13:56;;;;;;;;;;;20.70;60.20;;;;;;5034523;28;19913;-78
2022/06/19 01:16:22;;;;;;;;;;;20.80;60.40;;;;;;5032947;28;19936;-78
2022/06/19 01:18:47;;;;;;;;;;;20.80;58.70;;;;;;5033674;28;20332;-78
2022/06/19 01:21:13;;;;;;;;;;;20.90;59.30;;;;;;5034576;28;19948;-78
2022/06/19 01:23:47;;;;;;;;;;;20.80;60.00;;;;;;5034499;28;19910;-78
2022/06/19 01:26:14;;;;;;;;;;;20.70;59.60;;;;;;5034174;28;19916;-78
2022/06/19 01:28:46;;;;;;;;;;;20.60;59.80;;;;;;5033678;28;19952;-79
2022/06/19 01:31:14;;;;;;;;;;;20.70;60.60;;;;;;5034227;28;19909;-78
2022/06/19 01:33:50;;;;;;;;;;;20.60;59.80;;;;;;5034246;28;19909;-78
2022/06/19 01:36:17;;;;;;;;;;;20.60;59.20;;;;;;5034006;28;19913;-78
2022/06/19 01:38:46;;;;;;;;;;;20.60;60.10;;;;;;5033452;28;19913;-78
2022/06/19 01:41:14;;;;;;;;;;;20.60;59.40;;;;;;5033974;28;19959;-78
2022/06/19 01:43:39;;;;;;;;;;;20.60;59.70;;;;;;5034088;28;19919;-78
2022/06/19 01:46:05;;;;;;;;;;;20.60;59.80;;;;;;5034319;28;19913;-78
2022/06/19 01:48:32;;;;;;;;;;;20.50;59.30;;;;;;5033700;28;19917;-78
2022/06/19 01:50:58;;;;;;;;;;;20.60;58.80;;;;;;5033852;28;19963;-78
2022/06/19 01:53:30;;;;;;;;;;;20.60;59.50;;;;;;5034064;28;20365;-78
2022/06/19 01:55:57;;;;;;;;;;;20.50;59.40;;;;;;5033790;28;19913;-78
2022/06/19 01:58:24;;;;;;;;;;;20.50;60.10;;;;;;5033126;28;19913;-78
2022/06/19 02:00:49;;;;;;;;;;;20.30;60.60;;;;;;5033162;28;19936;-78
2022/06/19 02:03:35;;;;;;;;;;;20.30;60.60;;;;;;5034064;28;20377;-77
2022/06/19 02:06:01;;;;;;;;;;;20.30;60.70;;;;;;5033544;28;19909;-78
2022/06/19 02:08:27;;;;;;;;;;;20.20;60.60;;;;;;5033344;28;19920;-78
2022/06/19 02:10:53;;;;;;;;;;;20.20;61.10;;;;;;5033991;28;19909;-79
2022/06/19 02:13:19;;;;;;;;;;;20.20;62.00;;;;;;5033861;28;19973;-78
2022/06/19 02:15:45;;;;;;;;;;;20.10;62.20;;;;;;5032471;28;20008;-77
2022/06/19 02:18:15;;;;;;;;;;;20.00;61.90;;;;;;5034244;28;19905;-78
2022/06/19 02:20:41;;;;;;;;;;;20.00;62.40;;;;;;5032132;28;19913;-78
2022/06/19 02:23:07;;;;;;;;;;;20.00;62.60;;;;;;5034215;28;19955;-78
2022/06/19 02:25:35;;;;;;;;;;;20.00;63.10;;;;;;5034081;28;20004;-78
2022/06/19 02:28:01;;;;;;;;;;;20.00;62.40;;;;;;5032857;28;19909;-78
2022/06/19 02:30:27;;;;;;;;;;;20.00;62.30;;;;;;5033253;28;20365;-77
2022/06/19 02:32:53;;;;;;;;;;;20.00;62.30;;;;;;5033989;28;19996;-78
2022/06/19 02:35:21;;;;;;;;;;;20.00;62.40;;;;;;5033693;28;20324;-78
2022/06/19 02:37:50;;;;;;;;;;;19.90;61.90;;;;;;5032034;28;19913;-78
2022/06/19 02:40:19;;;;;;;;;;;20.00;61.90;;;;;;5033302;28;19917;-77
2022/06/19 02:42:46;;;;;;;;;;;20.00;62.30;;;;;;5033787;28;19913;-78
2022/06/19 02:45:25;;;;;;;;;;;20.00;62.00;;;;;;5033782;28;20419;-78
2022/06/19 02:47:52;;;;;;;;;;;19.90;62.00;;;;;;5032705;28;20296;-77
2022/06/19 02:50:20;;;;;;;;;;;19.90;62.10;;;;;;5031785;28;19940;-78
2022/06/19 02:52:47;;;;;;;;;;;19.90;61.10;;;;;;5032551;28;20358;-78
2022/06/19 02:55:13;;;;;;;;;;;19.80;60.80;;;;;;5032417;28;19910;-77
2022/06/19 02:57:38;;;;;;;;;;;19.90;60.90;;;;;;5031833;28;19910;-78
2022/06/19 03:00:05;;;;;;;;;;;20.00;61.10;;;;;;5031651;28;19913;-79
2022/06/19 03:02:31;;;;;;;;;;;19.90;61.90;;;;;;5033136;28;19916;-79
2022/06/19 03:04:58;;;;;;;;;;;20.00;61.80;;;;;;5033598;28;19913;-79
2022/06/19 03:07:25;;;;;;;;;;;19.90;61.50;;;;;;5033004;28;19948;-79
2022/06/19 03:09:50;;;;;;;;;;;19.90;61.40;;;;;;5030826;28;19913;-79
2022/06/19 03:12:16;;;;;;;;;;;19.80;61.80;;;;;;5032510;28;20421;-78
2022/06/19 03:14:42;;;;;;;;;;;19.90;61.60;;;;;;5032427;28;20361;-78
2022/06/19 03:17:09;;;;;;;;;;;19.80;60.10;;;;;;5032767;28;20361;-78
2022/06/19 03:19:35;;;;;;;;;;;19.90;60.60;;;;;;5031783;28;19913;-77
2022/06/19 03:22:02;;;;;;;;;;;19.80;61.20;;;;;;5032622;28;19913;-78
2022/06/19 03:24:27;;;;;;;;;;;19.80;61.40;;;;;;5030882;28;19913;-78
2022/06/19 03:26:53;;;;;;;;;;;19.90;61.10;;;;;;5031935;28;19917;-78
2022/06/19 03:29:19;;;;;;;;;;;19.90;61.30;;;;;;5030555;28;19931;-78
2022/06/19 03:31:44;;;;;;;;;;;19.80;60.30;;;;;;5031203;28;20479;-79
2022/06/19 03:34:10;;;;;;;;;;;19.80;60.50;;;;;;5032224;28;19920;-78
2022/06/19 03:36:35;;;;;;;;;;;19.80;60.60;;;;;;5032605;28;19935;-78
2022/06/19 03:39:01;;;;;;;;;;;19.70;61.30;;;;;;5031545;28;19976;-78
2022/06/19 03:41:26;;;;;;;;;;;19.80;61.20;;;;;;5032518;28;20491;-78
2022/06/19 03:43:52;;;;;;;;;;;19.80;62.20;;;;;;5030714;28;19909;-78
2022/06/19 03:46:18;;;;;;;;;;;19.80;62.20;;;;;;4970037;28;1775104;-79
2022/06/19 03:48:45;;;;;;;;;;;19.70;62.00;;;;;;5030913;28;19916;-78
2022/06/19 03:51:10;;;;;;;;;;;19.70;61.60;;;;;;5032080;28;19913;-79
2022/06/19 03:53:36;;;;;;;;;;;19.70;61.80;;;;;;5030144;28;19913;-78
2022/06/19 03:56:02;;;;;;;;;;;19.70;61.60;;;;;;5030181;28;19967;-78
2022/06/19 03:58:45;;;;;;;;;;;19.70;61.80;;;;;;5030714;28;20361;-78
2022/06/19 04:01:12;;;;;;;;;;;19.70;62.10;;;;;;5031349;28;19913;-78
2022/06/19 04:03:37;;;;;;;;;;;19.70;62.80;;;;;;5033129;28;19913;-79
2022/06/19 04:06:03;;;;;;;;;;;19.70;63.20;;;;;;5032848;28;19909;-79
2022/06/19 04:08:28;;;;;;;;;;;19.70;62.00;;;;;;5032046;28;19957;-79
2022/06/19 04:10:53;;;;;;;;;;;19.70;62.20;;;;;;5033759;28;19963;-79
2022/06/19 04:13:19;;;;;;;;;;;19.80;62.80;;;;;;5031611;28;20467;-78
2022/06/19 04:15:44;;;;;;;;;;;19.70;63.40;;;;;;5029913;28;19951;-78
2022/06/19 04:18:10;;;;;;;;;;;19.70;62.70;;;;;;5031400;28;20369;-77
2022/06/19 04:20:36;;;;;;;;;;;19.90;61.60;;;;;;5030829;28;19924;-80
2022/06/19 04:23:01;;;;;;;;;;;20.20;59.40;;;;;;5034706;28;19984;-78
2022/06/19 04:25:28;;;;;;;;;;;20.50;58.50;;;;;;5034625;28;19995;-78
2022/06/19 04:27:53;;;;;;;;;;;20.60;58.00;;;;;;5031226;28;19913;-78
2022/06/19 04:30:19;;;;;;;;;;;20.70;57.70;;;;;;5030404;28;19916;-78
2022/06/19 04:32:44;;;;;;;;;;;20.80;57.90;;;;;;5031061;28;19913;-77
2022/06/19 04:35:10;;;;;;;;;;;20.80;59.20;;;;;;5030894;28;19913;-77
2022/06/19 04:37:35;;;;;;;;;;;20.80;58.30;;;;;;5031352;28;19995;-78
2022/06/19 04:40:01;;;;;;;;;;;20.90;57.70;;;;;;5034222;28;19921;-78
2022/06/19 04:42:26;;;;;;;;;;;21.00;57.60;;;;;;5035091;28;19960;-78
2022/06/19 04:44:51;;;;;;;;;;;21.10;58.40;;;;;;5034901;28;19910;-78
2022/06/19 04:47:17;;;;;;;;;;;21.10;58.40;;;;;;5034801;28;20377;-77
2022/06/19 04:49:42;;;;;;;;;;;21.10;59.10;;;;;;5034597;28;19955;-78
2022/06/19 04:52:08;;;;;;;;;;;21.10;59.80;;;;;;5034880;28;19960;-78
2022/06/19 04:54:33;;;;;;;;;;;21.20;58.30;;;;;;5034776;28;19955;-77
2022/06/19 04:56:59;;;;;;;;;;;21.40;57.40;;;;;;5035455;28;19917;-79
2022/06/19 04:59:24;;;;;;;;;;;21.50;57.10;;;;;;5035237;28;19909;-78
2022/06/19 05:01:50;;;;;;;;;;;21.60;57.20;;;;;;5034941;28;19917;-78
2022/06/19 05:04:15;;;;;;;;;;;21.70;58.20;;;;;;5034762;28;19909;-78
2022/06/19 05:06:42;;;;;;;;;;;21.80;58.10;;;;;;5034710;28;20976;-78
2022/06/19 05:09:07;;;;;;;;;;;21.90;57.90;;;;;;5034034;28;19919;-77
2022/06/19 05:11:33;;;;;;;;;;;21.90;58.60;;;;;;5034534;28;19996;-78
2022/06/19 05:13:59;;;;;;;;;;;21.90;59.10;;;;;;5034335;28;20265;-78
2022/06/19 05:16:25;;;;;;;;;;;22.00;58.40;;;;;;5034468;28;19964;-78
2022/06/19 05:18:51;;;;;;;;;;;22.20;55.70;;;;;;5035955;28;19913;-78
2022/06/19 05:21:17;;;;;;;;;;;22.40;55.80;;;;;;5039449;28;20018;-80
2022/06/19 05:23:44;;;;;;;;;;;22.50;55.20;;;;;;5037855;28;19940;-79
2022/06/19 05:26:16;;;;;;;;;;;22.60;55.00;;;;;;5036200;28;19913;-80
2022/06/19 05:28:42;;;;;;;;;;;22.70;54.80;;;;;;5041555;28;20361;-79
2022/06/19 05:31:07;;;;;;;;;;;22.90;54.50;;;;;;5042653;28;19913;-79
2022/06/19 05:33:34;;;;;;;;;;;23.00;54.10;;;;;;5040238;28;19980;-79
2022/06/19 05:35:59;;;;;;;;;;;23.20;54.10;;;;;;5041031;28;19913;-79
2022/06/19 05:38:25;;;;;;;;;;;23.30;53.00;;;;;;5039839;28;19919;-79
2022/06/19 05:40:51;;;;;;;;;;;23.40;53.30;;;;;;5038706;28;19920;-79
2022/06/19 05:43:18;;;;;;;;;;;23.30;53.40;;;;;;5038174;28;19913;-79
2022/06/19 05:46:03;;;;;;;;;;;23.50;53.50;;;;;;5040148;28;19909;-79
2022/06/19 05:48:29;;;;;;;;;;;23.60;52.90;;;;;;5039342;28;19917;-79
2022/06/19 05:51:05;;;;;;;;;;;23.80;52.60;;;;;;5039318;28;20262;-79
2022/06/19 05:53:32;;;;;;;;;;;23.90;52.10;;;;;;5038649;28;19909;-79
2022/06/19 05:55:58;;;;;;;;;;;24.10;52.10;;;;;;5039921;28;19980;-79
2022/06/19 05:58:23;;;;;;;;;;;24.20;51.60;;;;;;5039456;28;20443;-79
2022/06/19 06:00:49;;;;;;;;;;;24.30;51.80;;;;;;5040152;28;19917;-79
2022/06/19 06:03:16;;;;;;;;;;;24.30;51.80;;;;;;5039792;28;19909;-79
2022/06/19 06:05:43;;;;;;;;;;;24.50;51.30;;;;;;5039305;28;20337;-79
2022/06/19 06:08:09;;;;;;;;;;;24.70;50.80;;;;;;5039630;28;19917;-79
2022/06/19 06:10:34;;;;;;;;;;;25.00;50.40;;;;;;5036848;28;19909;-79
2022/06/19 06:12:59;;;;;;;;;;;25.50;49.50;;;;;;5035637;28;20395;-80
2022/06/19 06:15:25;;;;;;;;;;;26.20;48.40;;;;;;5035997;28;19910;-83
2022/06/19 06:17:50;;;;;;;;;;;26.70;47.80;;;;;;5035626;28;20276;-81
2022/06/19 06:20:16;;;;;;;;;;;27.00;47.00;;;;;;5035189;28;20010;-81
2022/06/19 06:22:41;;;;;;;;;;;27.30;46.40;;;;;;5037381;28;20008;-81
2022/06/19 06:25:10;;;;;;;;;;;27.50;46.30;;;;;;5036702;28;19909;-82
2022/06/19 06:27:35;;;;;;;;;;;27.60;45.60;;;;;;5034578;28;19915;-82
2022/06/19 06:30:01;;;;;;;;;;;27.80;45.60;;;;;;5035471;28;19909;-82
2022/06/19 06:32:26;;;;;;;;;;;28.00;45.50;;;;;;5036799;28;19922;-81
2022/06/19 06:34:51;;;;;;;;;;;28.20;45.50;;;;;;5035695;28;19916;-81
2022/06/19 06:37:17;;;;;;;;;;;28.00;51.60;;;;;;5036386;28;19913;-83
2022/06/19 06:39:42;;;;;;;;;;;27.60;53.10;;;;;;5037560;28;19909;-79
2022/06/19 06:42:08;;;;;;;;;;;27.80;53.30;;;;;;5034380;28;20008;-80
2022/06/19 06:44:33;;;;;;;;;;;28.10;53.20;;;;;;5034513;28;19916;-81
2022/06/19 06:47:02;;;;;;;;;;;27.70;53.60;;;;;;5035390;28;19918;-82
2022/06/19 06:49:28;;;;;;;;;;;27.00;55.00;;;;;;5033522;28;19945;-81
2022/06/19 06:51:53;;;;;;;;;;;27.50;55.20;;;;;;5035382;28;19909;-82
2022/06/19 06:54:19;;;;;;;;;;;27.70;54.70;;;;;;5035685;28;19981;-83
2022/06/19 06:56:44;;;;;;;;;;;27.80;54.80;;;;;;5035010;28;19939;-84
2022/06/19 06:59:10;;;;;;;;;;;27.70;54.70;;;;;;5034676;28;20300;-83
2022/06/19 07:01:36;;;;;;;;;;;27.20;55.40;;;;;;5038699;28;20415;-80
2022/06/19 07:04:02;;;;;;;;;;;27.40;55.70;;;;;;5038429;28;19963;-81
2022/06/19 07:06:30;;;;;;;;;;;27.70;55.10;;;;;;5037021;28;19913;-83
2022/06/19 07:08:56;;;;;;;;;;;27.90;54.70;;;;;;5041624;28;20000;-83
2022/06/19 07:11:24;;;;;;;;;;;28.10;55.10;;;;;;5039184;28;19909;-82
2022/06/19 07:13:49;;;;;;;;;;;28.30;56.10;;;;;;5038466;28;19909;-81
2022/06/19 07:16:15;;;;;;;;;;;28.40;56.00;;;;;;5037411;28;19913;-84
2022/06/19 07:18:40;;;;;;;;;;;28.50;56.30;;;;;;5035413;28;19913;-83
2022/06/19 07:21:06;;;;;;;;;;;28.80;58.30;;;;;;5034684;28;20391;-81
2022/06/19 07:23:32;;;;;;;;;;;28.80;58.20;;;;;;5035199;28;19909;-81
2022/06/19 07:25:57;;;;;;;;;;;29.00;59.40;;;;;;5035106;28;20004;-81
2022/06/19 07:28:22;;;;;;;;;;;29.30;60.30;;;;;;5033059;28;20828;-81
2022/06/19 07:30:48;;;;;;;;;;;29.40;59.40;;;;;;5033835;28;19956;-81
2022/06/19 07:33:14;;;;;;;;;;;29.50;59.70;;;;;;5035284;28;19909;-82
2022/06/19 07:35:39;;;;;;;;;;;29.60;41.60;;;;;;5034710;28;19976;-82
2022/06/19 07:38:05;;;;;;;;;;;29.80;42.40;;;;;;5035338;28;19909;-82
2022/06/19 07:40:31;;;;;;;;;;;29.00;43.20;;;;;;5034230;28;19917;-82
2022/06/19 07:42:56;;;;;;;;;;;28.00;45.50;;;;;;5034737;28;19963;-81
2022/06/19 07:45:22;;;;;;;;;;;27.40;46.70;;;;;;5035645;28;19909;-80
2022/06/19 07:50:31;;;;;;;;;;;26.80;48.00;;;;;;5033425;28;19951;-81
2022/06/19 07:52:57;;;;;;;;;;;26.60;48.20;;;;;;5033784;28;19909;-81
2022/06/19 07:55:27;;;;;;;;;;;26.40;48.30;;;;;;5033988;28;19966;-86
2022/06/19 07:57:52;;;;;;;;;;;26.30;48.70;;;;;;5034043;28;19909;-80
2022/06/19 08:00:19;;;;;;;;;;;26.20;48.80;;;;;;5033424;28;19920;-80
2022/06/19 08:02:46;;;;;;;;;;;26.10;48.90;;;;;;5034715;28;19913;-79
2022/06/19 08:05:12;;;;;;;;;;;26.10;49.20;;;;;;5033435;28;19916;-78
2022/06/19 08:07:38;;;;;;;;;;;26.00;49.30;;;;;;5031585;28;19913;-78
2022/06/19 08:10:04;;;;;;;;;;;25.90;49.30;;;;;;5030764;28;20051;-78
2022/06/19 08:12:29;;;;;;;;;;;25.80;49.50;;;;;;5031489;28;20003;-78
2022/06/19 08:14:55;;;;;;;;;;;25.80;49.70;;;;;;5031547;28;19913;-78
2022/06/19 08:17:20;;;;;;;;;;;25.70;49.70;;;;;;5032044;28;20440;-78
2022/06/19 08:19:46;;;;;;;;;;;25.70;50.00;;;;;;5030752;28;19909;-78
2022/06/19 08:22:11;;;;;;;;;;;25.60;50.00;;;;;;5031671;28;19909;-78
2022/06/19 08:24:37;;;;;;;;;;;25.60;50.10;;;;;;5031402;28;19913;-78
2022/06/19 08:27:05;;;;;;;;;;;25.50;50.00;;;;;;5031371;28;20407;-78
2022/06/19 08:29:31;;;;;;;;;;;25.40;50.10;;;;;;5030548;28;19915;-78
2022/06/19 08:31:56;;;;;;;;;;;25.40;50.20;;;;;;5031527;28;19909;-78
2022/06/19 08:34:22;;;;;;;;;;;25.40;50.30;;;;;;5031356;28;20402;-78
2022/06/19 08:36:48;;;;;;;;;;;25.40;50.40;;;;;;5031219;28;20029;-78
2022/06/19 08:39:15;;;;;;;;;;;25.30;50.30;;;;;;5030645;28;19909;-78
2022/06/19 08:41:46;;;;;;;;;;;25.30;50.50;;;;;;5031331;28;19917;-78
2022/06/19 08:44:23;;;;;;;;;;;25.30;50.50;;;;;;5031294;28;19916;-78
2022/06/19 08:47:01;;;;;;;;;;;25.20;50.60;;;;;;5031134;28;19913;-78
2022/06/19 08:49:41;;;;;;;;;;;25.20;50.60;;;;;;5030569;28;19991;-78
2022/06/19 08:52:25;;;;;;;;;;;25.20;50.70;;;;;;5031507;28;19909;-78
2022/06/19 08:54:50;;;;;;;;;;;25.20;50.70;;;;;;5031197;28;19920;-78
2022/06/19 08:57:22;;;;;;;;;;;25.10;50.70;;;;;;5029930;28;19909;-78
2022/06/19 08:59:50;;;;;;;;;;;25.10;50.70;;;;;;5031653;28;20258;-78
2022/06/19 09:02:34;;;;;;;;;;;25.10;50.70;;;;;;5030498;28;19909;-78
2022/06/19 09:07:56;;;;;;;;;;;25.10;50.80;;;;;;5031480;28;19916;-78
2022/06/19 09:10:24;;;;;;;;;;;25.10;50.70;;;;;;5030258;28;19912;-78
2022/06/19 09:13:08;;;;;;;;;;;25.10;50.70;;;;;;5031199;28;20343;-78
2022/06/19 09:15:44;;;;;;;;;;;25.10;50.80;;;;;;5031085;28;19909;-78
2022/06/19 09:18:16;;;;;;;;;;;25.10;50.80;;;;;;5031404;28;19909;-79
2022/06/19 09:20:50;;;;;;;;;;;25.10;50.80;;;;;;5030660;28;20322;-78
2022/06/19 09:23:15;;;;;;;;;;;25.10;50.70;;;;;;5032241;28;19909;-79
2022/06/19 09:25:58;;;;;;;;;;;25.10;50.80;;;;;;5035368;28;19909;-79
2022/06/19 09:28:25;;;;;;;;;;;25.10;50.70;;;;;;5035397;28;19909;-79
2022/06/19 09:30:53;;;;;;;;;;;25.10;50.70;;;;;;5036935;28;19909;-80
2022/06/19 09:33:38;;;;;;;;;;;25.10;50.70;;;;;;5036018;28;20357;-78
2022/06/19 09:36:11;;;;;;;;;;;25.10;50.70;;;;;;5035491;28;19917;-79
2022/06/19 09:38:41;;;;;;;;;;;25.10;50.80;;;;;;5035932;28;19921;-79
2022/06/19 09:41:09;;;;;;;;;;;25.20;50.80;;;;;;5035939;28;19913;-79
2022/06/19 09:43:38;;;;;;;;;;;25.10;50.70;;;;;;5034915;28;19963;-80
2022/06/19 09:46:15;;;;;;;;;;;25.20;50.80;;;;;;5035250;28;20312;-79
2022/06/19 09:48:41;;;;;;;;;;;25.20;50.80;;;;;;5034838;28;19917;-79
2022/06/19 09:51:25;;;;;;;;;;;25.20;50.80;;;;;;5036706;28;19913;-79
2022/06/19 09:53:55;;;;;;;;;;;25.20;50.80;;;;;;5036377;28;19955;-79
2022/06/19 09:56:39;;;;;;;;;;;25.20;50.80;;;;;;5034551;28;20321;-79
2022/06/19 09:59:10;;;;;;;;;;;25.10;50.70;;;;;;5032226;28;20321;-79
2022/06/19 10:01:36;;;;;;;;;;;25.10;50.80;;;;;;5032911;28;19936;-79
2022/06/19 10:04:04;;;;;;;;;;;25.10;51.20;;;;;;5032634;28;20495;-79
2022/06/19 10:06:29;;;;;;;;;;;25.10;50.90;;;;;;5034139;28;19909;-79
2022/06/19 10:08:58;;;;;;;;;;;25.10;50.90;;;;;;5031777;28;19924;-78
2022/06/19 10:11:36;;;;;;;;;;;25.10;50.90;;;;;;5033731;28;20438;-78
2022/06/19 10:14:04;;;;;;;;;;;25.00;51.00;;;;;;5033775;28;19913;-78
2022/06/19 10:16:35;;;;;;;;;;;25.00;51.00;;;;;;5032304;28;19916;-77
2022/06/19 10:19:10;;;;;;;;;;;25.00;51.00;;;;;;5032861;28;19913;-78
2022/06/19 10:24:37;;;;;;;;;;;25.00;51.00;;;;;;5033504;28;19915;-78
2022/06/19 10:27:11;;;;;;;;;;;25.00;51.10;;;;;;5033312;28;19962;-78
2022/06/19 10:29:48;;;;;;;;;;;25.00;51.10;;;;;;5032677;28;20436;-77
2022/06/19 10:32:23;;;;;;;;;;;25.00;51.10;;;;;;5033446;28;20438;-78
2022/06/19 10:35:09;;;;;;;;;;;25.00;51.10;;;;;;5032767;28;20273;-78
2022/06/19 10:38:00;;;;;;;;;;;24.90;51.10;;;;;;5032958;28;20318;-78
2022/06/19 10:40:32;;;;;;;;;;;24.90;51.10;;;;;;5032463;28;19914;-78
2022/06/19 10:43:05;;;;;;;;;;;24.90;51.10;;;;;;5033086;28;19944;-78
2022/06/19 10:45:38;;;;;;;;;;;24.90;51.10;;;;;;5033106;28;19920;-78
2022/06/19 10:48:22;;;;;;;;;;;24.90;51.10;;;;;;5032953;28;19987;-78
2022/06/19 10:51:07;;;;;;;;;;;24.90;51.10;;;;;;5032579;28;19909;-78
2022/06/19 10:53:43;;;;;;;;;;;24.90;51.10;;;;;;5031691;28;19913;-78
2022/06/19 10:56:27;;;;;;;;;;;24.90;51.10;;;;;;5033006;28;19909;-78
2022/06/19 10:58:53;;;;;;;;;;;24.90;51.10;;;;;;5032162;28;19972;-78
2022/06/19 11:04:07;;;;;;;;;;;24.90;51.70;;;;;;5033281;28;20007;-78
2022/06/19 11:06:49;;;;;;;;;;;24.80;51.10;;;;;;5033316;28;19953;-77
2022/06/19 11:09:24;;;;;;;;;;;24.90;51.20;;;;;;5032379;28;20373;-78
2022/06/19 11:11:52;;;;;;;;;;;24.90;51.20;;;;;;5032934;28;19913;-77
2022/06/19 11:14:33;;;;;;;;;;;24.90;51.20;;;;;;5032635;28;19917;-78
2022/06/19 11:17:04;;;;;;;;;;;24.90;50.70;;;;;;5033163;28;19921;-78
2022/06/19 11:19:47;;;;;;;;;;;24.90;50.60;;;;;;5032505;28;19909;-79
2022/06/19 11:22:30;;;;;;;;;;;24.90;50.70;;;;;;5033229;28;20020;-78
2022/06/19 11:24:56;;;;;;;;;;;24.90;50.80;;;;;;5033618;28;19913;-78
2022/06/19 11:27:23;;;;;;;;;;;24.90;50.80;;;;;;5032939;28;19917;-79
2022/06/19 11:29:50;;;;;;;;;;;24.90;50.90;;;;;;5032489;28;19909;-79
2022/06/19 11:32:20;;;;;;;;;;;24.90;50.80;;;;;;5033309;28;19909;-79
2022/06/19 11:35:15;;;;;;;;;;;24.90;50.90;;;;;;5032790;28;20400;-79
2022/06/19 11:37:46;;;;;;;;;;;24.90;50.90;;;;;;5024472;28;19932;-79
2022/06/19 11:40:14;;;;;;;;;;;24.90;50.90;;;;;;5030888;28;20284;-78
2022/06/19 11:42:51;;;;;;;;;;;24.90;50.70;;;;;;5031651;28;20261;-80
2022/06/19 11:45:16;;;;;;;;;;;24.90;50.80;;;;;;5034147;28;19917;-79
2022/06/19 11:47:43;;;;;;;;;;;24.90;51.20;;;;;;5033259;28;19921;-78
2022/06/19 11:50:13;;;;;;;;;;;24.90;51.20;;;;;;5032565;28;19909;-79
2022/06/19 11:52:40;;;;;;;;;;;24.90;51.30;;;;;;5033821;28;20395;-79
2022/06/19 11:55:27;;;;;;;;;;;24.90;51.30;;;;;;5034806;28;19913;-80
2022/06/19 11:57:55;;;;;;;;;;;25.00;51.60;;;;;;5026642;28;19909;-79
2022/06/19 12:00:23;;;;;;;;;;;24.90;51.30;;;;;;5032671;28;19917;-80
2022/06/19 12:02:52;;;;;;;;;;;25.00;51.40;;;;;;5033264;28;19928;-79
2022/06/19 12:05:21;;;;;;;;;;;25.10;52.50;;;;;;5032093;28;19941;-77
2022/06/19 12:07:47;;;;;;;;;;;;;;;;;;5033009;28;19935;-82
2022/06/19 12:10:21;;;;;;;;;;;25.80;51.40;;;;;;5030745;28;20436;-77
2022/06/19 12:12:58;;;;;;;;;;;25.80;51.80;;;;;;5032356;28;20345;-79
2022/06/19 12:15:29;;;;;;;;;;;25.70;51.80;;;;;;5032300;28;19940;-79
2022/06/19 12:17:56;;;;;;;;;;;25.60;52.30;;;;;;5034059;28;19910;-79
2022/06/19 12:20:24;;;;;;;;;;;25.40;52.60;;;;;;5033151;28;19917;-79
2022/06/19 12:22:52;;;;;;;;;;;25.50;52.70;;;;;;5034242;28;19913;-80
2022/06/19 12:25:24;;;;;;;;;;;25.50;53.10;;;;;;5033203;28;19906;-82
2022/06/19 12:27:55;;;;;;;;;;;25.40;53.10;;;;;;5033064;28;19918;-80
2022/06/19 12:30:30;;;;;;;;;;;25.40;53.10;;;;;;5038163;28;19959;-84
2022/06/19 12:32:56;;;;;;;;;;;25.40;53.10;;;;;;5038313;28;19912;-80
2022/06/19 12:35:28;;;;;;;;;;;25.30;53.00;;;;;;5038187;28;20371;-81
2022/06/19 12:37:54;;;;;;;;;;;25.30;52.70;;;;;;5040599;28;20006;-84
2022/06/19 12:40:21;;;;;;;;;;;25.30;52.70;;;;;;5041096;28;20541;-81
2022/06/19 12:42:56;;;;;;;;;;;25.30;52.50;;;;;;5039630;28;19998;-82
2022/06/19 12:45:35;;;;;;;;;;;25.20;52.40;;;;;;5039423;28;19913;-80
2022/06/19 12:48:20;;;;;;;;;;;25.20;52.40;;;;;;5036671;28;20286;-83
2022/06/19 12:50:50;;;;;;;;;;;25.20;52.30;;;;;;5036647;28;19921;-80
2022/06/19 12:53:35;;;;;;;;;;;25.20;52.20;;;;;;5037512;28;19913;-80
2022/06/19 12:56:10;;;;;;;;;;;25.20;52.20;;;;;;5035763;28;19914;-83
2022/06/19 12:58:53;;;;;;;;;;;25.20;52.10;;;;;;5037773;28;20354;-80
2022/06/19 13:01:31;;;;;;;;;;;25.10;52.00;;;;;;5041271;28;19936;-83
2022/06/19 13:04:16;;;;;;;;;;;25.20;52.10;;;;;;5040882;28;19916;-80
2022/06/19 13:06:57;;;;;;;;;;;25.20;52.10;;;;;;5038112;28;19977;-81
2022/06/19 13:09:35;;;;;;;;;;;25.10;52.00;;;;;;5038862;28;19920;-80
2022/06/19 13:12:09;;;;;;;;;;;25.10;52.00;;;;;;5039186;28;20276;-81
2022/06/19 13:14:37;;;;;;;;;;;25.10;51.90;;;;;;5039823;28;19909;-80
2022/06/19 13:17:03;;;;;;;;;;;25.10;52.00;;;;;;5036898;28;20008;-80
2022/06/19 13:19:41;;;;;;;;;;;25.10;51.90;;;;;;5037201;28;19913;-79
2022/06/19 13:22:16;;;;;;;;;;;25.10;51.80;;;;;;5037618;28;19913;-81
2022/06/19 13:24:50;;;;;;;;;;;25.10;51.90;;;;;;5038641;28;19956;-84
2022/06/19 13:27:32;;;;;;;;;;;25.10;51.80;;;;;;5037200;28;19913;-80
2022/06/19 13:30:06;;;;;;;;;;;25.10;51.80;;;;;;5037088;28;20299;-84
2022/06/19 13:33:04;;;;;;;;;;;25.10;51.70;;;;;;5037663;28;19913;-81
2022/06/19 13:35:30;;;;;;;;;;;25.10;51.80;;;;;;5015789;28;20004;-82
2022/06/19 13:38:16;;;;;;;;;;;25.10;51.80;;;;;;5037053;28;19937;-80
2022/06/19 13:40:54;;;;;;;;;;;25.10;51.80;;;;;;5038694;28;19917;-82
2022/06/19 13:43:19;;;;;;;;;;;25.10;51.80;;;;;;5037720;28;19963;-80
2022/06/19 13:46:02;;;;;;;;;;;25.10;51.80;;;;;;5038122;28;19913;-79
2022/06/19 13:48:32;;;;;;;;;;;25.10;51.80;;;;;;5036937;28;20287;-80
2022/06/19 13:51:06;;;;;;;;;;;25.10;51.80;;;;;;5038256;28;19913;-82
2022/06/19 13:53:39;;;;;;;;;;;25.10;51.80;;;;;;5037725;28;19909;-80
2022/06/19 13:56:23;;;;;;;;;;;25.10;51.80;;;;;;5038201;28;20404;-81
2022/06/19 13:58:55;;;;;;;;;;;25.10;51.80;;;;;;5038047;28;19931;-80
2022/06/19 14:01:32;;;;;;;;;;;25.10;51.70;;;;;;5035330;28;19913;-81
2022/06/19 14:06:48;;;;;;;;;;;25.10;51.70;;;;;;5035586;28;19936;-80
2022/06/19 14:09:17;;;;;;;;;;;25.10;51.70;;;;;;5034827;28;19913;-81
2022/06/19 14:12:04;;;;;;;;;;;25.10;51.60;;;;;;5034400;28;19917;-80
2022/06/19 14:14:31;;;;;;;;;;;25.10;51.70;;;;;;5034532;28;19939;-80
2022/06/19 14:16:59;;;;;;;;;;;25.10;51.60;;;;;;5033878;28;19909;-80
2022/06/19 14:19:32;;;;;;;;;;;25.10;51.70;;;;;;5034087;28;20336;-80
2022/06/19 14:22:06;;;;;;;;;;;25.10;51.60;;;;;;5035174;28;19913;-80
2022/06/19 14:24:46;;;;;;;;;;;25.10;51.70;;;;;;5035921;28;19936;-80
2022/06/19 14:27:30;;;;;;;;;;;25.10;51.60;;;;;;5035371;28;19913;-79
2022/06/19 14:30:04;;;;;;;;;;;25.00;51.60;;;;;;5034203;28;19963;-80
2022/06/19 14:32:45;;;;;;;;;;;25.10;51.60;;;;;;5035214;28;20258;-79
2022/06/19 14:35:19;;;;;;;;;;;25.10;51.60;;;;;;5034821;28;19909;-82
2022/06/19 14:37:47;;;;;;;;;;;25.10;51.60;;;;;;5033324;28;19916;-81
2022/06/19 14:40:36;;;;;;;;;;;25.10;51.60;;;;;;5034430;28;19915;-80
2022/06/19 14:43:12;;;;;;;;;;;25.10;51.60;;;;;;5028770;28;19909;-81